sensor_id;sensor_type;location;lat;lon;timestamp;pressure;altitude;pressure_sealevel;temperature;humidity
8637;BME280;4356;49.068;8.658;2023-02-17T00:00:26;100711.06;;;18.67;32.24
8637;BME280;4356;49.068;8.658;2023-02-17T00:02:58;100712.94;;;18.66;32.16
8637;BME280;4356;49.068;8.658;2023-02-17T00:05:25;100714.22;;;18.64;32.42
8637;BME280;4356;49.068;8.658;2023-02-17T00:07:51;100694.50;;;18.55;32.16
8637;BME280;4356;49.068;8.658;2023-02-17T00:10:18;100713.56;;;18.62;32.17
8637;BME280;4356;49.068;8.658;2023-02-17T00:12:43;100695.75;;;18.53;32.12
8637;BME280;4356;49.068;8.658;2023-02-17T00:15:09;100712.72;;;18.61;32.23
8637;BME280;4356;49.068;8.658;2023-02-17T00:17:35;100708.34;;;18.60;32.48
8637;BME280;4356;49.068;8.658;2023-02-17T00:20:00;100712.09;;;18.59;32.29
8637;BME280;4356;49.068;8.658;2023-02-17T00:22:26;100704.34;;;18.56;32.17
8637;BME280;4356;49.068;8.658;2023-02-17T00:24:51;100698.25;;;18.54;32.28
8637;BME280;4356;49.068;8.658;2023-02-17T00:27:17;100690.28;;;18.53;32.69
8637;BME280;4356;49.068;8.658;2023-02-17T00:29:44;100697.00;;;18.57;32.43
8637;BME280;4356;49.068;8.658;2023-02-17T00:32:10;100683.41;;;18.57;32.33
8637;BME280;4356;49.068;8.658;2023-02-17T00:34:36;100684.44;;;18.56;32.42
8637;BME280;4356;49.068;8.658;2023-02-17T00:37:01;100681.50;;;18.51;32.28
8637;BME280;4356;49.068;8.658;2023-02-17T00:39:27;100688.22;;;18.55;32.62
8637;BME280;4356;49.068;8.658;2023-02-17T00:41:53;100687.38;;;18.54;32.29
8637;BME280;4356;49.068;8.658;2023-02-17T00:44:21;100693.88;;;18.53;32.65
8637;BME280;4356;49.068;8.658;2023-02-17T00:46:47;100684.41;;;18.49;32.33
8637;BME280;4356;49.068;8.658;2023-02-17T00:49:20;100693.00;;;18.53;32.49
8637;BME280;4356;49.068;8.658;2023-02-17T00:51:46;100693.44;;;18.50;32.04
8637;BME280;4356;49.068;8.658;2023-02-17T00:54:13;100693.59;;;18.48;32.34
8637;BME280;4356;49.068;8.658;2023-02-17T00:56:39;100696.31;;;18.48;32.26
8637;BME280;4356;49.068;8.658;2023-02-17T00:59:05;100699.91;;;18.48;32.25
8637;BME280;4356;49.068;8.658;2023-02-17T01:01:31;100678.66;;;18.37;32.55
8637;BME280;4356;49.068;8.658;2023-02-17T01:03:56;100696.53;;;18.46;32.58
8637;BME280;4356;49.068;8.658;2023-02-17T01:06:25;100690.81;;;18.35;32.28
8637;BME280;4356;49.068;8.658;2023-02-17T01:08:51;100699.03;;;18.41;32.47
8637;BME280;4356;49.068;8.658;2023-02-17T01:11:18;100708.47;;;18.45;32.18
8637;BME280;4356;49.068;8.658;2023-02-17T01:13:44;100697.34;;;18.40;32.58
8637;BME280;4356;49.068;8.658;2023-02-17T01:16:37;100702.41;;;18.43;32.34
8637;BME280;4356;49.068;8.658;2023-02-17T01:19:05;100684.13;;;18.37;32.23
8637;BME280;4356;49.068;8.658;2023-02-17T01:21:32;100682.25;;;18.38;32.64
8637;BME280;4356;49.068;8.658;2023-02-17T01:23:59;100667.34;;;18.27;32.57
8637;BME280;4356;49.068;8.658;2023-02-17T01:26:27;100682.88;;;18.40;32.40
8637;BME280;4356;49.068;8.658;2023-02-17T01:28:53;100691.03;;;18.40;32.36
8637;BME280;4356;49.068;8.658;2023-02-17T01:31:20;100701.94;;;18.40;32.82
8637;BME280;4356;49.068;8.658;2023-02-17T01:33:47;100699.22;;;18.40;32.59
8637;BME280;4356;49.068;8.658;2023-02-17T01:36:15;100692.06;;;18.39;32.87
8637;BME280;4356;49.068;8.658;2023-02-17T01:38:41;100684.53;;;18.34;32.75
8637;BME280;4356;49.068;8.658;2023-02-17T01:41:08;100677.38;;;18.33;32.76
8637;BME280;4356;49.068;8.658;2023-02-17T01:43:34;100689.34;;;18.39;32.75
8637;BME280;4356;49.068;8.658;2023-02-17T01:46:04;100676.38;;;18.34;32.49
8637;BME280;4356;49.068;8.658;2023-02-17T01:48:35;100684.97;;;18.38;32.84
8637;BME280;4356;49.068;8.658;2023-02-17T01:53:39;100673.00;;;18.32;32.49
8637;BME280;4356;49.068;8.658;2023-02-17T01:56:06;100668.41;;;18.33;32.48
8637;BME280;4356;49.068;8.658;2023-02-17T01:58:33;100671.13;;;18.33;32.81
8637;BME280;4356;49.068;8.658;2023-02-17T02:01:00;100664.19;;;18.24;32.89
8637;BME280;4356;49.068;8.658;2023-02-17T02:03:29;100662.28;;;18.24;32.61
8637;BME280;4356;49.068;8.658;2023-02-17T02:05:58;100654.72;;;18.20;32.53
8637;BME280;4356;49.068;8.658;2023-02-17T02:08:27;100654.72;;;18.20;32.68
8637;BME280;4356;49.068;8.658;2023-02-17T02:10:54;100657.88;;;18.23;32.80
8637;BME280;4356;49.068;8.658;2023-02-17T02:13:19;100670.69;;;18.29;32.74
8637;BME280;4356;49.068;8.658;2023-02-17T02:15:58;100664.63;;;18.27;33.07
8637;BME280;4356;49.068;8.658;2023-02-17T02:18:40;100666.69;;;18.25;32.90
8637;BME280;4356;49.068;8.658;2023-02-17T02:21:33;100663.13;;;18.25;33.24
8637;BME280;4356;49.068;8.658;2023-02-17T02:29:57;100665.63;;;18.20;33.07
8637;BME280;4356;49.068;8.658;2023-02-17T02:33:37;100655.16;;;18.17;33.07
8637;BME280;4356;49.068;8.658;2023-02-17T02:35:47;100655.16;;;18.17;33.02
8637;BME280;4356;49.068;8.658;2023-02-17T02:38:19;100646.34;;;18.15;33.03
8637;BME280;4356;49.068;8.658;2023-02-17T02:40:49;100648.22;;;18.14;33.25
8637;BME280;4356;49.068;8.658;2023-02-17T02:43:17;100636.06;;;18.10;33.24
8637;BME280;4356;49.068;8.658;2023-02-17T02:45:43;100630.19;;;18.07;33.50
8637;BME280;4356;49.068;8.658;2023-02-17T02:48:08;100632.53;;;18.10;33.20
8637;BME280;4356;49.068;8.658;2023-02-17T02:51:04;100633.34;;;18.10;33.34
8637;BME280;4356;49.068;8.658;2023-02-17T02:56:43;100641.91;;;18.07;33.55
8637;BME280;4356;49.068;8.658;2023-02-17T02:59:28;100648.56;;;18.05;33.36
8637;BME280;4356;49.068;8.658;2023-02-17T03:05:10;100637.69;;;17.98;33.65
8637;BME280;4356;49.068;8.658;2023-02-17T03:07:41;100653.56;;;18.01;33.97
8637;BME280;4356;49.068;8.658;2023-02-17T03:10:09;100651.72;;;18.02;33.87
8637;BME280;4356;49.068;8.658;2023-02-17T03:12:36;100650.03;;;18.01;33.94
8637;BME280;4356;49.068;8.658;2023-02-17T03:15:16;100644.41;;;18.02;33.91
8637;BME280;4356;49.068;8.658;2023-02-17T03:17:44;100636.44;;;18.01;33.86
8637;BME280;4356;49.068;8.658;2023-02-17T03:20:10;100627.66;;;17.99;33.73
8637;BME280;4356;49.068;8.658;2023-02-17T03:22:39;100634.53;;;18.01;33.99
8637;BME280;4356;49.068;8.658;2023-02-17T03:25:06;100633.72;;;18.01;33.84
8637;BME280;4356;49.068;8.658;2023-02-17T03:27:32;100620.28;;;17.93;34.19
8637;BME280;4356;49.068;8.658;2023-02-17T03:29:58;100616.13;;;17.97;33.88
8637;BME280;4356;49.068;8.658;2023-02-17T03:32:23;100626.16;;;17.96;34.00
8637;BME280;4356;49.068;8.658;2023-02-17T03:34:49;100633.09;;;17.99;34.05
8637;BME280;4356;49.068;8.658;2023-02-17T03:37:15;100610.41;;;17.92;33.98
8637;BME280;4356;49.068;8.658;2023-02-17T03:39:41;100632.22;;;17.98;33.96
8637;BME280;4356;49.068;8.658;2023-02-17T03:42:06;100607.47;;;17.87;33.71
8637;BME280;4356;49.068;8.658;2023-02-17T03:44:32;100630.53;;;17.97;33.91
8637;BME280;4356;49.068;8.658;2023-02-17T03:46:58;100641.41;;;17.97;34.00
8637;BME280;4356;49.068;8.658;2023-02-17T03:49:23;100639.53;;;17.98;33.93
8637;BME280;4356;49.068;8.658;2023-02-17T03:51:49;100633.47;;;17.96;33.82
8637;BME280;4356;49.068;8.658;2023-02-17T03:54:14;100623.84;;;17.93;33.72
8637;BME280;4356;49.068;8.658;2023-02-17T03:56:40;100620.06;;;17.88;34.09
8637;BME280;4356;49.068;8.658;2023-02-17T03:59:05;100627.59;;;17.92;33.89
8637;BME280;4356;49.068;8.658;2023-02-17T04:01:31;100604.53;;;17.82;33.89
8637;BME280;4356;49.068;8.658;2023-02-17T04:03:57;100609.75;;;17.83;34.03
8637;BME280;4356;49.068;8.658;2023-02-17T04:06:22;100625.50;;;17.88;34.62
8637;BME280;4356;49.068;8.658;2023-02-17T04:08:48;100634.28;;;17.90;34.27
8637;BME280;4356;49.068;8.658;2023-02-17T04:11:13;100610.09;;;17.74;34.21
8637;BME280;4356;49.068;8.658;2023-02-17T04:13:39;100620.44;;;17.85;34.48
8637;BME280;4356;49.068;8.658;2023-02-17T04:16:06;100615.84;;;17.85;34.16
8637;BME280;4356;49.068;8.658;2023-02-17T04:18:33;100635.31;;;17.89;34.24
8637;BME280;4356;49.068;8.658;2023-02-17T04:20:59;100616.69;;;17.86;34.18
8637;BME280;4356;49.068;8.658;2023-02-17T04:23:25;100609.97;;;17.82;34.53
8637;BME280;4356;49.068;8.658;2023-02-17T04:25:51;100611.84;;;17.81;34.54
8637;BME280;4356;49.068;8.658;2023-02-17T04:28:17;100608.47;;;17.79;34.73
8637;BME280;4356;49.068;8.658;2023-02-17T04:30:47;100620.25;;;17.86;34.69
8637;BME280;4356;49.068;8.658;2023-02-17T04:33:13;100619.59;;;17.84;34.20
8637;BME280;4356;49.068;8.658;2023-02-17T04:35:39;100623.34;;;17.83;33.96
8637;BME280;4356;49.068;8.658;2023-02-17T04:38:07;100620.81;;;17.75;34.30
8637;BME280;4356;49.068;8.658;2023-02-17T04:40:33;100626.69;;;17.79;34.42
8637;BME280;4356;49.068;8.658;2023-02-17T04:42:59;100613.91;;;17.79;34.60
8637;BME280;4356;49.068;8.658;2023-02-17T04:45:24;100622.06;;;17.79;34.64
8637;BME280;4356;49.068;8.658;2023-02-17T04:47:50;100621.88;;;17.81;34.12
8637;BME280;4356;49.068;8.658;2023-02-17T04:50:16;100627.72;;;17.78;34.50
8637;BME280;4356;49.068;8.658;2023-02-17T04:52:41;100633.78;;;17.80;34.38
8637;BME280;4356;49.068;8.658;2023-02-17T04:55:07;100639.44;;;17.78;34.29
8637;BME280;4356;49.068;8.658;2023-02-17T04:57:33;100631.69;;;17.75;34.56
8637;BME280;4356;49.068;8.658;2023-02-17T04:59:58;100643.22;;;17.77;34.53
8637;BME280;4356;49.068;8.658;2023-02-17T05:02:24;100625.94;;;17.64;34.69
8637;BME280;4356;49.068;8.658;2023-02-17T05:04:51;100638.13;;;17.74;34.29
8637;BME280;4356;49.068;8.658;2023-02-17T05:07:18;100648.63;;;17.77;34.75
8637;BME280;4356;49.068;8.658;2023-02-17T05:09:44;100643.38;;;17.76;34.66
8637;BME280;4356;49.068;8.658;2023-02-17T05:12:09;100651.97;;;17.79;34.45
8637;BME280;4356;49.068;8.658;2023-02-17T05:14:35;100648.81;;;17.76;34.43
8637;BME280;4356;49.068;8.658;2023-02-17T05:17:01;100641.91;;;17.73;34.74
8637;BME280;4356;49.068;8.658;2023-02-17T05:19:26;100614.63;;;17.60;34.79
8637;BME280;4356;49.068;8.658;2023-02-17T05:21:52;100643.22;;;17.77;34.33
8637;BME280;4356;49.068;8.658;2023-02-17T05:24:18;100640.47;;;17.77;34.53
8637;BME280;4356;49.068;8.658;2023-02-17T05:26:43;100641.50;;;17.76;34.46
8637;BME280;4356;49.068;8.658;2023-02-17T05:29:11;100642.72;;;17.74;34.69
8637;BME280;4356;49.068;8.658;2023-02-17T05:31:37;100638.34;;;17.73;34.45
8637;BME280;4356;49.068;8.658;2023-02-17T05:34:02;100640.88;;;17.74;34.58
8637;BME280;4356;49.068;8.658;2023-02-17T05:36:28;100642.56;;;17.75;34.66
8637;BME280;4356;49.068;8.658;2023-02-17T05:38:54;100647.16;;;17.75;34.68
8637;BME280;4356;49.068;8.658;2023-02-17T05:41:19;100646.28;;;17.74;34.71
8637;BME280;4356;49.068;8.658;2023-02-17T05:43:45;100648.00;;;17.75;34.37
8637;BME280;4356;49.068;8.658;2023-02-17T05:46:11;100628.22;;;17.60;34.48
8637;BME280;4356;49.068;8.658;2023-02-17T05:48:37;100649.22;;;17.73;34.44
8637;BME280;4356;49.068;8.658;2023-02-17T05:51:03;100644.56;;;17.67;34.70
8637;BME280;4356;49.068;8.658;2023-02-17T05:53:29;100648.13;;;17.67;34.33
8637;BME280;4356;49.068;8.658;2023-02-17T05:55:55;100655.06;;;17.70;34.74
8637;BME280;4356;49.068;8.658;2023-02-17T05:58:20;100652.72;;;17.67;35.13
8637;BME280;4356;49.068;8.658;2023-02-17T06:00:46;100667.56;;;17.64;34.56
8637;BME280;4356;49.068;8.658;2023-02-17T06:03:12;100668.38;;;17.65;34.63
8637;BME280;4356;49.068;8.658;2023-02-17T06:05:38;100669.69;;;17.69;34.69
8637;BME280;4356;49.068;8.658;2023-02-17T06:08:04;100668.00;;;17.68;35.34
8637;BME280;4356;49.068;8.658;2023-02-17T06:10:30;100664.66;;;17.66;35.10
8637;BME280;4356;49.068;8.658;2023-02-17T06:12:56;100670.09;;;17.66;35.13
8637;BME280;4356;49.068;8.658;2023-02-17T06:15:22;100661.94;;;17.66;35.13
8637;BME280;4356;49.068;8.658;2023-02-17T06:17:47;100673.69;;;17.73;35.04
8637;BME280;4356;49.068;8.658;2023-02-17T06:20:13;100663.03;;;17.71;35.61
8637;BME280;4356;49.068;8.658;2023-02-17T06:22:40;100675.81;;;17.77;35.73
8637;BME280;4356;49.068;8.658;2023-02-17T06:25:06;100666.38;;;17.73;35.53
8637;BME280;4356;49.068;8.658;2023-02-17T06:27:31;100673.94;;;17.78;35.43
8637;BME280;4356;49.068;8.658;2023-02-17T06:29:57;100672.69;;;17.80;35.55
8637;BME280;4356;49.068;8.658;2023-02-17T06:32:23;100665.19;;;17.82;35.31
8637;BME280;4356;49.068;8.658;2023-02-17T06:34:48;100667.91;;;17.82;35.51
8637;BME280;4356;49.068;8.658;2023-02-17T06:37:14;100672.28;;;17.83;35.31
8637;BME280;4356;49.068;8.658;2023-02-17T06:39:39;100674.44;;;17.88;35.88
8637;BME280;4356;49.068;8.658;2023-02-17T06:42:05;100679.25;;;17.92;35.50
8637;BME280;4356;49.068;8.658;2023-02-17T06:44:30;100674.47;;;17.94;35.61
8637;BME280;4356;49.068;8.658;2023-02-17T06:46:57;100680.75;;;17.95;35.42
8637;BME280;4356;49.068;8.658;2023-02-17T06:49:24;100666.72;;;17.91;35.83
8637;BME280;4356;49.068;8.658;2023-02-17T06:51:51;100680.53;;;17.96;35.54
8637;BME280;4356;49.068;8.658;2023-02-17T06:54:19;100673.81;;;17.92;36.04
8637;BME280;4356;49.068;8.658;2023-02-17T06:56:47;100683.13;;;18.04;35.79
8637;BME280;4356;49.068;8.658;2023-02-17T06:59:15;100692.31;;;18.03;35.62
8637;BME280;4356;49.068;8.658;2023-02-17T07:01:42;100691.00;;;17.99;35.61
8637;BME280;4356;49.068;8.658;2023-02-17T07:04:08;100707.19;;;18.07;35.90
8637;BME280;4356;49.068;8.658;2023-02-17T07:06:34;100701.78;;;18.14;36.25
8637;BME280;4356;49.068;8.658;2023-02-17T07:09:00;100707.84;;;18.16;36.00
8637;BME280;4356;49.068;8.658;2023-02-17T07:11:26;100712.06;;;18.18;35.63
8637;BME280;4356;49.068;8.658;2023-02-17T07:13:57;100706.84;;;18.17;35.37
8637;BME280;4356;49.068;8.658;2023-02-17T07:16:24;100694.47;;;18.21;35.50
8637;BME280;4356;49.068;8.658;2023-02-17T07:18:51;100693.25;;;18.23;35.36
8637;BME280;4356;49.068;8.658;2023-02-17T07:21:16;100679.22;;;18.20;35.56
8637;BME280;4356;49.068;8.658;2023-02-17T07:23:42;100694.53;;;18.27;36.05
8637;BME280;4356;49.068;8.658;2023-02-17T07:26:09;100698.94;;;18.28;35.47
8637;BME280;4356;49.068;8.658;2023-02-17T07:28:36;100704.00;;;18.31;35.83
8637;BME280;4356;49.068;8.658;2023-02-17T07:31:11;100698.56;;;18.31;35.59
8637;BME280;4356;49.068;8.658;2023-02-17T07:33:38;100711.75;;;18.34;35.36
8637;BME280;4356;49.068;8.658;2023-02-17T07:36:06;100707.16;;;18.35;35.24
8637;BME280;4356;49.068;8.658;2023-02-17T07:38:32;100713.03;;;18.38;35.34
8637;BME280;4356;49.068;8.658;2023-02-17T07:41:12;100722.00;;;18.39;35.42
8637;BME280;4356;49.068;8.658;2023-02-17T07:43:39;100720.81;;;18.41;35.43
8637;BME280;4356;49.068;8.658;2023-02-17T07:46:05;100716.00;;;18.43;35.66
8637;BME280;4356;49.068;8.658;2023-02-17T07:48:31;100718.25;;;18.40;35.37
8637;BME280;4356;49.068;8.658;2023-02-17T07:51:12;100713.66;;;18.40;35.45
8637;BME280;4356;49.068;8.658;2023-02-17T07:53:38;100719.56;;;18.44;35.38
8637;BME280;4356;49.068;8.658;2023-02-17T07:56:06;100728.38;;;18.46;35.35
8637;BME280;4356;49.068;8.658;2023-02-17T07:58:33;100729.00;;;18.48;35.22
8637;BME280;4356;49.068;8.658;2023-02-17T08:01:06;100731.53;;;18.50;35.71
8637;BME280;4356;49.068;8.658;2023-02-17T08:03:32;100728.81;;;18.50;35.53
8637;BME280;4356;49.068;8.658;2023-02-17T08:05:58;100717.72;;;18.51;35.51
8637;BME280;4356;49.068;8.658;2023-02-17T08:08:25;100726.09;;;18.50;35.56
8637;BME280;4356;49.068;8.658;2023-02-17T08:11:14;100719.19;;;18.54;35.83
8637;BME280;4356;49.068;8.658;2023-02-17T08:14:00;100729.03;;;18.55;35.28
8637;BME280;4356;49.068;8.658;2023-02-17T08:16:26;100722.53;;;18.56;35.09
8637;BME280;4356;49.068;8.658;2023-02-17T08:18:53;100721.53;;;18.57;35.13
8637;BME280;4356;49.068;8.658;2023-02-17T08:21:21;100710.00;;;18.55;35.58
8637;BME280;4356;49.068;8.658;2023-02-17T08:23:47;100716.88;;;18.57;35.57
8637;BME280;4356;49.068;8.658;2023-02-17T08:26:12;100719.44;;;18.59;35.08
8637;BME280;4356;49.068;8.658;2023-02-17T08:28:39;100712.09;;;18.59;35.46
8637;BME280;4356;49.068;8.658;2023-02-17T08:31:04;100706.44;;;18.61;35.66
8637;BME280;4356;49.068;8.658;2023-02-17T08:33:30;100703.69;;;18.54;35.45
8637;BME280;4356;49.068;8.658;2023-02-17T08:35:56;100698.91;;;18.63;35.84
8637;BME280;4356;49.068;8.658;2023-02-17T08:38:22;100705.19;;;18.63;36.07
8637;BME280;4356;49.068;8.658;2023-02-17T08:40:47;100706.25;;;18.62;35.82
8637;BME280;4356;49.068;8.658;2023-02-17T08:43:13;100691.16;;;18.60;35.75
8637;BME280;4356;49.068;8.658;2023-02-17T08:45:39;100709.16;;;18.61;35.72
8637;BME280;4356;49.068;8.658;2023-02-17T08:48:05;100707.91;;;18.63;35.72
8637;BME280;4356;49.068;8.658;2023-02-17T08:50:31;100694.53;;;18.62;35.97
8637;BME280;4356;49.068;8.658;2023-02-17T08:52:58;100692.81;;;18.61;35.77
8637;BME280;4356;49.068;8.658;2023-02-17T08:55:23;100686.13;;;18.57;35.83
8637;BME280;4356;49.068;8.658;2023-02-17T08:57:49;100687.38;;;18.54;36.00
8637;BME280;4356;49.068;8.658;2023-02-17T09:00:16;100697.06;;;18.70;36.09
8637;BME280;4356;49.068;8.658;2023-02-17T09:02:42;100702.69;;;18.68;36.32
8637;BME280;4356;49.068;8.658;2023-02-17T09:05:11;100718.84;;;18.70;35.98
8637;BME280;4356;49.068;8.658;2023-02-17T09:07:37;100717.16;;;18.69;36.13
8637;BME280;4356;49.068;8.658;2023-02-17T09:10:05;100718.59;;;18.65;36.29
8637;BME280;4356;49.068;8.658;2023-02-17T09:12:31;100737.09;;;18.76;36.05
8637;BME280;4356;49.068;8.658;2023-02-17T09:14:56;100743.97;;;18.72;36.46
8637;BME280;4356;49.068;8.658;2023-02-17T09:17:22;100735.00;;;18.78;36.42
8637;BME280;4356;49.068;8.658;2023-02-17T09:19:48;100728.53;;;18.79;36.31
8637;BME280;4356;49.068;8.658;2023-02-17T09:22:14;100753.03;;;18.79;36.09
8637;BME280;4356;49.068;8.658;2023-02-17T09:24:42;100767.25;;;18.81;35.93
8637;BME280;4356;49.068;8.658;2023-02-17T09:27:08;100773.97;;;18.78;36.11
8637;BME280;4356;49.068;8.658;2023-02-17T09:29:35;100768.53;;;18.78;36.59
8637;BME280;4356;49.068;8.658;2023-02-17T09:32:05;100789.31;;;18.86;36.67
8637;BME280;4356;49.068;8.658;2023-02-17T09:34:34;100770.25;;;18.86;36.20
8637;BME280;4356;49.068;8.658;2023-02-17T09:37:00;100764.97;;;18.84;36.28
8637;BME280;4356;49.068;8.658;2023-02-17T09:39:25;100761.66;;;18.89;36.23
8637;BME280;4356;49.068;8.658;2023-02-17T09:41:51;100765.44;;;18.88;36.68
8637;BME280;4356;49.068;8.658;2023-02-17T09:45:16;100763.31;;;18.90;36.39
8637;BME280;4356;49.068;8.658;2023-02-17T09:47:22;100736.94;;;18.90;36.80
8637;BME280;4356;49.068;8.658;2023-02-17T09:49:59;100750.53;;;18.90;36.07
8637;BME280;4356;49.068;8.658;2023-02-17T09:52:44;100738.19;;;18.88;36.12
8637;BME280;4356;49.068;8.658;2023-02-17T09:55:21;100750.34;;;18.92;36.49
8637;BME280;4356;49.068;8.658;2023-02-17T10:00:40;100756.44;;;18.94;37.32
8637;BME280;4356;49.068;8.658;2023-02-17T10:05:52;100750.78;;;18.95;36.89
8637;BME280;4356;49.068;8.658;2023-02-17T10:08:26;100750.78;;;18.95;36.80
8637;BME280;4356;49.068;8.658;2023-02-17T10:13:29;100754.56;;;19.01;36.83
8637;BME280;4356;49.068;8.658;2023-02-17T10:16:00;100722.88;;;18.93;36.51
8637;BME280;4356;49.068;8.658;2023-02-17T10:18:36;100727.75;;;19.04;36.36
8637;BME280;4356;49.068;8.658;2023-02-17T10:21:07;100729.81;;;19.02;36.54
8637;BME280;4356;49.068;8.658;2023-02-17T10:23:36;100738.47;;;19.06;36.44
8637;BME280;4356;49.068;8.658;2023-02-17T10:26:47;100734.47;;;19.08;36.30
8637;BME280;4356;49.068;8.658;2023-02-17T10:29:44;100728.81;;;19.10;36.31
8637;BME280;4356;49.068;8.658;2023-02-17T10:32:25;100720.63;;;19.10;36.64
8637;BME280;4356;49.068;8.658;2023-02-17T10:37:28;100705.13;;;19.10;36.36
8637;BME280;4356;49.068;8.658;2023-02-17T10:39:57;100695.72;;;19.13;36.36
8637;BME280;4356;49.068;8.658;2023-02-17T10:42:32;100679.97;;;19.08;36.64
8637;BME280;4356;49.068;8.658;2023-02-17T10:45:02;100712.50;;;19.16;36.54
8637;BME280;4356;49.068;8.658;2023-02-17T10:47:29;100710.19;;;19.20;36.76
8637;BME280;4356;49.068;8.658;2023-02-17T10:49:56;100724.44;;;19.22;36.66
8637;BME280;4356;49.068;8.658;2023-02-17T10:52:31;100691.94;;;19.14;37.20
8637;BME280;4356;49.068;8.658;2023-02-17T10:55:07;100710.81;;;19.22;36.85
8637;BME280;4356;49.068;8.658;2023-02-17T10:57:37;100691.13;;;19.26;36.86
8637;BME280;4356;49.068;8.658;2023-02-17T11:00:12;100709.41;;;19.32;36.96
8637;BME280;4356;49.068;8.658;2023-02-17T11:02:42;100720.50;;;19.37;36.84
8637;BME280;4356;49.068;8.658;2023-02-17T11:05:29;100715.06;;;19.37;36.90
8637;BME280;4356;49.068;8.658;2023-02-17T11:08:02;100710.84;;;19.35;36.66
8637;BME280;4356;49.068;8.658;2023-02-17T11:10:30;100710.66;;;19.43;37.06
8637;BME280;4356;49.068;8.658;2023-02-17T11:12:57;100707.72;;;19.44;36.61
8637;BME280;4356;49.068;8.658;2023-02-17T11:15:42;100710.06;;;19.48;36.54
8637;BME280;4356;49.068;8.658;2023-02-17T11:18:16;100697.25;;;19.41;36.72
8637;BME280;4356;49.068;8.658;2023-02-17T11:20:42;100717.16;;;19.55;36.84
8637;BME280;4356;49.068;8.658;2023-02-17T11:25:41;100716.53;;;19.66;36.55
8637;BME280;4356;49.068;8.658;2023-02-17T11:28:13;100720.53;;;19.70;36.29
8637;BME280;4356;49.068;8.658;2023-02-17T11:30:53;100711.09;;;19.79;36.00
8637;BME280;4356;49.068;8.658;2023-02-17T11:33:43;100710.25;;;19.85;36.32
8637;BME280;4356;49.068;8.658;2023-02-17T11:36:29;100698.91;;;19.88;35.86
8637;BME280;4356;49.068;8.658;2023-02-17T11:38:56;100700.38;;;19.91;36.06
8637;BME280;4356;49.068;8.658;2023-02-17T11:41:24;100703.53;;;19.94;35.98
8637;BME280;4356;49.068;8.658;2023-02-17T11:43:55;100697.84;;;19.96;36.49
8637;BME280;4356;49.068;8.658;2023-02-17T11:46:42;100699.72;;;19.95;36.15
8637;BME280;4356;49.068;8.658;2023-02-17T11:49:44;100700.34;;;19.97;36.35
8637;BME280;4356;49.068;8.658;2023-02-17T11:58:42;100702.25;;;19.97;36.25
8637;BME280;4356;49.068;8.658;2023-02-17T12:18:06;100673.28;;;19.89;36.37
8637;BME280;4356;49.068;8.658;2023-02-17T12:26:34;100674.31;;;19.95;36.49
8637;BME280;4356;49.068;8.658;2023-02-17T12:34:41;100689.44;;;19.97;36.38
8637;BME280;4356;49.068;8.658;2023-02-17T12:37:17;100688.41;;;19.98;36.55
8637;BME280;4356;49.068;8.658;2023-02-17T12:39:52;100701.41;;;20.03;36.58
8637;BME280;4356;49.068;8.658;2023-02-17T12:44:55;100689.41;;;20.04;36.81
8637;BME280;4356;49.068;8.658;2023-02-17T12:47:31;100683.97;;;20.04;36.85
8637;BME280;4356;49.068;8.658;2023-02-17T12:50:15;100680.19;;;20.05;36.83
8637;BME280;4356;49.068;8.658;2023-02-17T12:52:45;100687.72;;;20.09;36.89
8637;BME280;4356;49.068;8.658;2023-02-17T12:57:50;100674.09;;;20.09;37.26
8637;BME280;4356;49.068;8.658;2023-02-17T13:00:38;100674.09;;;20.09;37.37
8637;BME280;4356;49.068;8.658;2023-02-17T13:03:06;100678.72;;;20.09;37.37
8637;BME280;4356;49.068;8.658;2023-02-17T13:05:34;100679.53;;;20.09;37.34
8637;BME280;4356;49.068;8.658;2023-02-17T13:08:17;100681.03;;;20.12;37.30
8637;BME280;4356;49.068;8.658;2023-02-17T13:10:45;100673.25;;;20.15;37.51
8637;BME280;4356;49.068;8.658;2023-02-17T13:13:24;100658.56;;;20.16;37.40
8637;BME280;4356;49.068;8.658;2023-02-17T13:16:04;100672.44;;;20.21;37.29
8637;BME280;4356;49.068;8.658;2023-02-17T13:18:33;100660.25;;;20.17;37.07
8637;BME280;4356;49.068;8.658;2023-02-17T13:23:40;100673.47;;;20.27;37.22
8637;BME280;4356;49.068;8.658;2023-02-17T13:28:47;100682.88;;;20.31;37.01
8637;BME280;4356;49.068;8.658;2023-02-17T13:31:15;100677.00;;;20.34;37.17
8637;BME280;4356;49.068;8.658;2023-02-17T13:33:55;100679.50;;;20.35;36.95
8637;BME280;4356;49.068;8.658;2023-02-17T13:36:33;100684.97;;;20.35;36.95
8637;BME280;4356;49.068;8.658;2023-02-17T13:39:00;100686.63;;;20.36;37.37
8637;BME280;4356;49.068;8.658;2023-02-17T13:41:45;100668.59;;;20.35;37.43
8637;BME280;4356;49.068;8.658;2023-02-17T13:44:37;100688.50;;;20.42;38.12
8637;BME280;4356;49.068;8.658;2023-02-17T13:47:15;100676.13;;;20.40;37.29
8637;BME280;4356;49.068;8.658;2023-02-17T13:49:54;100683.69;;;20.44;37.01
8637;BME280;4356;49.068;8.658;2023-02-17T13:52:25;100682.84;;;20.44;36.92
8637;BME280;4356;49.068;8.658;2023-02-17T13:57:28;100687.47;;;20.43;36.95
8637;BME280;4356;49.068;8.658;2023-02-17T14:08:37;100676.97;;;20.40;36.89
8637;BME280;4356;49.068;8.658;2023-02-17T14:11:12;100666.50;;;20.37;36.86
8637;BME280;4356;49.068;8.658;2023-02-17T14:13:42;100665.66;;;20.37;36.94
8637;BME280;4356;49.068;8.658;2023-02-17T14:16:32;100669.44;;;20.36;36.96
8637;BME280;4356;49.068;8.658;2023-02-17T14:19:18;100672.41;;;20.34;36.95
8637;BME280;4356;49.068;8.658;2023-02-17T14:24:33;100682.06;;;20.30;37.06
8637;BME280;4356;49.068;8.658;2023-02-17T14:27:07;100686.66;;;20.30;37.15
8637;BME280;4356;49.068;8.658;2023-02-17T14:29:41;100679.34;;;20.24;38.14
8637;BME280;4356;49.068;8.658;2023-02-17T14:32:32;100683.53;;;20.26;37.61
8637;BME280;4356;49.068;8.658;2023-02-17T14:35:18;100675.16;;;20.21;37.48
8637;BME280;4356;49.068;8.658;2023-02-17T14:37:44;100669.47;;;20.23;37.36
8637;BME280;4356;49.068;8.658;2023-02-17T14:40:16;100648.06;;;20.13;37.32
8637;BME280;4356;49.068;8.658;2023-02-17T14:42:44;100659.59;;;20.22;37.55
8637;BME280;4356;49.068;8.658;2023-02-17T14:45:13;100649.31;;;20.24;37.52
8637;BME280;4356;49.068;8.658;2023-02-17T14:47:40;100651.41;;;20.22;37.80
8637;BME280;4356;49.068;8.658;2023-02-17T14:50:07;100630.66;;;20.14;37.72